Main page
METAR-TAF:

METAR-TAF

Airports :

El Caraño Airport

Quibdó, Colombia

latitude: 05-43N, longitude: 076-37W, elevation: 53 m

Current weather observation

The report was made 8 hours and 10 minutes ago, at 00:00 UTC
Wind 5 kt from the West/Southwest
Temperature 27°C
Humidity 89%
Pressure 1008 hPa
Visibility 10 km or more
Broken clouds at a height of 1500 ft
Few clouds at a height of 1800 ft, Cumulonimbus.

METAR: SKUI 030000Z 25005KT 9999 BKN015 FEW018CB 27/25 A2977 RMK CB/W

Time: 03:10 (08:10 UTC)


TAF: missing

Weather observations and forecasts of more than 4000 airports (METAR and TAF reports).

The available stations are represented by yellow and red dots on the map.

Hover mouse over dot to see the name of the station.

Then click to see weather observations and forecasts.

To change the map : click on the green buttons with a black cross to zoom in, on the green button with a dash to zoom out, or on the green arrows for adjacent maps.


METAR-TAF: